sensor_id;sensor_type;location;lat;lon;timestamp;pressure;altitude;pressure_sealevel;temperature;humidity
39265;BME280;42646;51.910;7.724;2023-03-23T00:05:41;99790.22;;;11.45;100.00
39265;BME280;42646;51.910;7.724;2023-03-23T00:08:16;99788.22;;;11.39;100.00
39265;BME280;42646;51.910;7.724;2023-03-23T00:10:50;99788.06;;;11.40;100.00
39265;BME280;42646;51.910;7.724;2023-03-23T00:13:19;99785.22;;;11.42;100.00
39265;BME280;42646;51.910;7.724;2023-03-23T00:15:47;99777.06;;;11.35;100.00
39265;BME280;42646;51.910;7.724;2023-03-23T00:18:17;99777.72;;;11.37;100.00
39265;BME280;42646;51.910;7.724;2023-03-23T00:21:39;99779.72;;;11.35;100.00
39265;BME280;42646;51.910;7.724;2023-03-23T00:24:09;99779.06;;;11.41;100.00
39265;BME280;42646;51.910;7.724;2023-03-23T00:26:40;99765.75;;;11.41;100.00
39265;BME280;42646;51.910;7.724;2023-03-23T00:29:09;99767.91;;;11.38;100.00
39265;BME280;42646;51.910;7.724;2023-03-23T00:31:40;99760.09;;;11.36;100.00
39265;BME280;42646;51.910;7.724;2023-03-23T00:34:14;99768.25;;;11.35;100.00
39265;BME280;42646;51.910;7.724;2023-03-23T00:36:45;99767.25;;;11.36;100.00
39265;BME280;42646;51.910;7.724;2023-03-23T00:48:18;99750.91;;;11.31;100.00
39265;BME280;42646;51.910;7.724;2023-03-23T00:50:46;99737.59;;;11.31;100.00
39265;BME280;42646;51.910;7.724;2023-03-23T00:53:15;99736.47;;;11.33;100.00
39265;BME280;42646;51.910;7.724;2023-03-23T00:55:42;99746.13;;;11.34;100.00
39265;BME280;42646;51.910;7.724;2023-03-23T00:58:09;99740.28;;;11.39;100.00
39265;BME280;42646;51.910;7.724;2023-03-23T01:00:37;99743.63;;;11.33;100.00
39265;BME280;42646;51.910;7.724;2023-03-23T01:03:05;99740.44;;;11.37;100.00
39265;BME280;42646;51.910;7.724;2023-03-23T01:09:42;99729.13;;;11.35;100.00
39265;BME280;42646;51.910;7.724;2023-03-23T01:12:11;99733.94;;;11.32;100.00
39265;BME280;42646;51.910;7.724;2023-03-23T01:14:38;99746.78;;;11.36;100.00
39265;BME280;42646;51.910;7.724;2023-03-23T01:17:08;99736.13;;;11.36;100.00
39265;BME280;42646;51.910;7.724;2023-03-23T01:19:35;99734.28;;;11.37;100.00
39265;BME280;42646;51.910;7.724;2023-03-23T01:22:03;99728.97;;;11.37;100.00
39265;BME280;42646;51.910;7.724;2023-03-23T01:24:31;99729.13;;;11.35;100.00
39265;BME280;42646;51.910;7.724;2023-03-23T01:26:59;99721.78;;;11.37;100.00
39265;BME280;42646;51.910;7.724;2023-03-23T01:29:31;99724.63;;;11.36;100.00
39265;BME280;42646;51.910;7.724;2023-03-23T01:31:58;99721.78;;;11.37;100.00
39265;BME280;42646;51.910;7.724;2023-03-23T01:34:25;99725.78;;;11.49;100.00
39265;BME280;42646;51.910;7.724;2023-03-23T01:36:52;99731.63;;;11.45;100.00
39265;BME280;42646;51.910;7.724;2023-03-23T01:39:19;99730.94;;;11.43;100.00
39265;BME280;42646;51.910;7.724;2023-03-23T01:41:46;99722.13;;;11.42;100.00
39265;BME280;42646;51.910;7.724;2023-03-23T01:47:24;99712.81;;;11.38;100.00
39265;BME280;42646;51.910;7.724;2023-03-23T01:49:53;99715.81;;;11.43;100.00
39265;BME280;42646;51.910;7.724;2023-03-23T01:52:23;99705.00;;;11.45;100.00
39265;BME280;42646;51.910;7.724;2023-03-23T01:54:57;99691.50;;;11.46;100.00
39265;BME280;42646;51.910;7.724;2023-03-23T01:57:25;99678.19;;;11.46;100.00
39265;BME280;42646;51.910;7.724;2023-03-23T01:59:57;99677.53;;;11.44;100.00
39265;BME280;42646;51.910;7.724;2023-03-23T02:02:41;99667.53;;;11.46;100.00
39265;BME280;42646;51.910;7.724;2023-03-23T02:05:17;99684.69;;;11.44;100.00
39265;BME280;42646;51.910;7.724;2023-03-23T02:16:08;99682.34;;;11.49;100.00
39265;BME280;42646;51.910;7.724;2023-03-23T02:18:48;99669.72;;;11.51;100.00
39265;BME280;42646;51.910;7.724;2023-03-23T02:21:54;99668.22;;;11.57;100.00
39265;BME280;42646;51.910;7.724;2023-03-23T02:24:52;99680.19;;;11.53;100.00
39265;BME280;42646;51.910;7.724;2023-03-23T02:27:31;99678.34;;;11.53;100.00
39265;BME280;42646;51.910;7.724;2023-03-23T02:38:50;99643.72;;;11.53;100.00
39265;BME280;42646;51.910;7.724;2023-03-23T02:41:20;99636.75;;;11.52;100.00
39265;BME280;42646;51.910;7.724;2023-03-23T02:43:49;99651.72;;;11.53;100.00
39265;BME280;42646;51.910;7.724;2023-03-23T02:46:18;99651.22;;;11.58;100.00
39265;BME280;42646;51.910;7.724;2023-03-23T02:48:50;99652.22;;;11.57;100.00
39265;BME280;42646;51.910;7.724;2023-03-23T02:52:09;99643.72;;;11.53;100.00
39265;BME280;42646;51.910;7.724;2023-03-23T02:55:03;99642.53;;;11.56;100.00
39265;BME280;42646;51.910;7.724;2023-03-23T02:57:32;99640.56;;;11.58;100.00
39265;BME280;42646;51.910;7.724;2023-03-23T03:00:01;99640.72;;;11.56;100.00
39265;BME280;42646;51.910;7.724;2023-03-23T03:02:35;99628.91;;;11.59;100.00
39265;BME280;42646;51.910;7.724;2023-03-23T03:05:12;99614.22;;;11.71;100.00
39265;BME280;42646;51.910;7.724;2023-03-23T03:08:33;99608.75;;;11.64;100.00
39265;BME280;42646;51.910;7.724;2023-03-23T03:12:26;99587.28;;;11.58;100.00
39265;BME280;42646;51.910;7.724;2023-03-23T03:15:06;99568.72;;;11.81;100.00
39265;BME280;42646;51.910;7.724;2023-03-23T03:17:36;99560.16;;;11.62;100.00
39265;BME280;42646;51.910;7.724;2023-03-23T03:20:07;99572.59;;;11.62;100.00
39265;BME280;42646;51.910;7.724;2023-03-23T03:22:38;99600.47;;;11.51;100.00
39265;BME280;42646;51.910;7.724;2023-03-23T03:25:10;99587.63;;;11.55;100.00
39265;BME280;42646;51.910;7.724;2023-03-23T03:27:41;99605.56;;;11.61;100.00
39265;BME280;42646;51.910;7.724;2023-03-23T03:30:20;99608.28;;;11.53;100.00
39265;BME280;42646;51.910;7.724;2023-03-23T03:32:49;99609.44;;;11.58;100.00
39265;BME280;42646;51.910;7.724;2023-03-23T03:35:20;99622.25;;;11.55;100.00
39265;BME280;42646;51.910;7.724;2023-03-23T03:37:49;99605.25;;;11.64;100.00
39265;BME280;42646;51.910;7.724;2023-03-23T03:40:19;99602.59;;;11.56;100.00
39265;BME280;42646;51.910;7.724;2023-03-23T03:42:47;99606.25;;;11.55;100.00
39265;BME280;42646;51.910;7.724;2023-03-23T03:45:15;99611.94;;;11.52;100.00
39265;BME280;42646;51.910;7.724;2023-03-23T03:47:44;99611.59;;;11.55;100.00
39265;BME280;42646;51.910;7.724;2023-03-23T03:50:11;99601.63;;;11.57;100.00
39265;BME280;42646;51.910;7.724;2023-03-23T03:52:39;99593.63;;;11.57;100.00
39265;BME280;42646;51.910;7.724;2023-03-23T03:55:07;99596.09;;;11.58;100.00
39265;BME280;42646;51.910;7.724;2023-03-23T03:57:37;99607.22;;;11.62;100.00
39265;BME280;42646;51.910;7.724;2023-03-23T04:00:07;99613.75;;;11.59;100.00
39265;BME280;42646;51.910;7.724;2023-03-23T04:02:41;99604.28;;;11.57;100.00
39265;BME280;42646;51.910;7.724;2023-03-23T04:05:09;99613.38;;;11.70;100.00
39265;BME280;42646;51.910;7.724;2023-03-23T04:07:37;99602.91;;;11.69;100.00
39265;BME280;42646;51.910;7.724;2023-03-23T04:10:06;99608.56;;;11.66;100.00
39265;BME280;42646;51.910;7.724;2023-03-23T04:12:34;99617.88;;;11.62;100.00
39265;BME280;42646;51.910;7.724;2023-03-23T04:15:31;99608.56;;;11.66;100.00
39265;BME280;42646;51.910;7.724;2023-03-23T04:17:59;99607.56;;;11.75;100.00
39265;BME280;42646;51.910;7.724;2023-03-23T04:20:28;99610.91;;;11.69;100.00
39265;BME280;42646;51.910;7.724;2023-03-23T04:22:56;99604.38;;;11.71;100.00
39265;BME280;42646;51.910;7.724;2023-03-23T04:25:24;99607.88;;;11.72;100.00
39265;BME280;42646;51.910;7.724;2023-03-23T04:27:53;99614.22;;;11.71;100.00
39265;BME280;42646;51.910;7.724;2023-03-23T04:30:25;99610.53;;;11.72;100.00
39265;BME280;42646;51.910;7.724;2023-03-23T04:33:09;99621.38;;;11.70;100.00
39265;BME280;42646;51.910;7.724;2023-03-23T04:35:42;99616.38;;;11.75;100.00
39265;BME280;42646;51.910;7.724;2023-03-23T04:38:37;99627.22;;;11.74;100.00
39265;BME280;42646;51.910;7.724;2023-03-23T04:41:12;99629.50;;;11.77;100.00
39265;BME280;42646;51.910;7.724;2023-03-23T04:44:06;99624.84;;;11.79;100.00
39265;BME280;42646;51.910;7.724;2023-03-23T04:46:39;99623.72;;;11.82;100.00
39265;BME280;42646;51.910;7.724;2023-03-23T04:49:36;99622.53;;;11.76;100.00
39265;BME280;42646;51.910;7.724;2023-03-23T04:52:12;99621.50;;;11.85;100.00
39265;BME280;42646;51.910;7.724;2023-03-23T04:54:42;99620.53;;;11.86;100.00
39265;BME280;42646;51.910;7.724;2023-03-23T04:57:35;99603.50;;;11.95;100.00
39265;BME280;42646;51.910;7.724;2023-03-23T05:00:36;99609.19;;;11.92;100.00
39265;BME280;42646;51.910;7.724;2023-03-23T05:03:04;99601.19;;;11.92;100.00
39265;BME280;42646;51.910;7.724;2023-03-23T05:05:34;99596.69;;;11.93;100.00
39265;BME280;42646;51.910;7.724;2023-03-23T05:08:05;99596.38;;;11.88;100.00
39265;BME280;42646;51.910;7.724;2023-03-23T05:10:36;99591.50;;;11.91;100.00
39265;BME280;42646;51.910;7.724;2023-03-23T05:13:07;99598.03;;;11.89;100.00
39265;BME280;42646;51.910;7.724;2023-03-23T05:15:34;99597.19;;;11.88;100.00
39265;BME280;42646;51.910;7.724;2023-03-23T05:18:03;99608.50;;;11.90;100.00
39265;BME280;42646;51.910;7.724;2023-03-23T05:20:31;99603.19;;;11.90;100.00
39265;BME280;42646;51.910;7.724;2023-03-23T05:23:12;99610.84;;;11.85;100.00
39265;BME280;42646;51.910;7.724;2023-03-23T05:25:41;99614.53;;;11.92;100.00
39265;BME280;42646;51.910;7.724;2023-03-23T05:28:17;99621.69;;;11.92;100.00
39265;BME280;42646;51.910;7.724;2023-03-23T05:30:50;99629.13;;;11.96;100.00
39265;BME280;42646;51.910;7.724;2023-03-23T05:33:43;99625.13;;;12.00;100.00
39265;BME280;42646;51.910;7.724;2023-03-23T05:36:32;99632.63;;;11.97;100.00
39265;BME280;42646;51.910;7.724;2023-03-23T05:39:24;99640.13;;;12.01;100.00
39265;BME280;42646;51.910;7.724;2023-03-23T05:42:13;99632.13;;;12.01;100.00
39265;BME280;42646;51.910;7.724;2023-03-23T05:44:57;99637.63;;;12.00;100.00
39265;BME280;42646;51.910;7.724;2023-03-23T05:47:25;99633.44;;;12.06;99.62
39265;BME280;42646;51.910;7.724;2023-03-23T05:49:56;99636.44;;;12.02;99.84
39265;BME280;42646;51.910;7.724;2023-03-23T05:52:25;99636.75;;;12.16;98.58
39265;BME280;42646;51.910;7.724;2023-03-23T05:54:54;99641.59;;;12.12;99.10
39265;BME280;42646;51.910;7.724;2023-03-23T05:57:23;99643.25;;;12.13;99.18
39265;BME280;42646;51.910;7.724;2023-03-23T06:00:03;99636.59;;;12.09;99.24
39265;BME280;42646;51.910;7.724;2023-03-23T06:02:38;99637.59;;;12.08;99.81
39265;BME280;42646;51.910;7.724;2023-03-23T06:05:10;99642.56;;;12.19;98.45
39265;BME280;42646;51.910;7.724;2023-03-23T06:07:39;99645.22;;;12.19;98.54
39265;BME280;42646;51.910;7.724;2023-03-23T06:10:08;99658.38;;;12.21;97.73
39265;BME280;42646;51.910;7.724;2023-03-23T06:13:02;99648.38;;;12.23;97.79
39265;BME280;42646;51.910;7.724;2023-03-23T06:15:39;99643.03;;;12.23;98.08
39265;BME280;42646;51.910;7.724;2023-03-23T06:18:17;99647.53;;;12.22;98.27
39265;BME280;42646;51.910;7.724;2023-03-23T06:20:59;99648.84;;;12.26;97.49
39265;BME280;42646;51.910;7.724;2023-03-23T06:23:44;99650.66;;;12.34;97.03
39265;BME280;42646;51.910;7.724;2023-03-23T06:26:20;99662.84;;;12.28;97.42
39265;BME280;42646;51.910;7.724;2023-03-23T06:28:54;99658.13;;;12.39;96.37
39265;BME280;42646;51.910;7.724;2023-03-23T06:31:21;99662.97;;;12.35;96.68
39265;BME280;42646;51.910;7.724;2023-03-23T06:33:49;99664.47;;;12.38;95.70
39265;BME280;42646;51.910;7.724;2023-03-23T06:36:25;99667.25;;;12.44;94.83
39265;BME280;42646;51.910;7.724;2023-03-23T06:39:07;99659.13;;;12.38;95.30
39265;BME280;42646;51.910;7.724;2023-03-23T06:41:56;99662.47;;;12.40;95.50
39265;BME280;42646;51.910;7.724;2023-03-23T06:44:24;99660.75;;;12.47;95.34
39265;BME280;42646;51.910;7.724;2023-03-23T06:46:52;99665.28;;;12.38;96.02
39265;BME280;42646;51.910;7.724;2023-03-23T06:49:25;99677.28;;;12.42;95.94
39265;BME280;42646;51.910;7.724;2023-03-23T06:52:07;99671.44;;;12.47;94.69
39265;BME280;42646;51.910;7.724;2023-03-23T06:54:34;99671.13;;;12.42;95.46
39265;BME280;42646;51.910;7.724;2023-03-23T06:57:03;99670.41;;;12.48;94.81
39265;BME280;42646;51.910;7.724;2023-03-23T06:59:31;99666.03;;;12.55;94.58
39265;BME280;42646;51.910;7.724;2023-03-23T07:01:58;99664.38;;;12.54;94.77
39265;BME280;42646;51.910;7.724;2023-03-23T07:04:25;99669.38;;;12.57;94.72
39265;BME280;42646;51.910;7.724;2023-03-23T07:07:12;99665.13;;;12.71;94.59
39265;BME280;42646;51.910;7.724;2023-03-23T07:09:48;99660.81;;;12.70;94.19
39265;BME280;42646;51.910;7.724;2023-03-23T07:12:20;99672.81;;;12.66;94.74
39265;BME280;42646;51.910;7.724;2023-03-23T07:14:49;99658.97;;;12.70;94.68
39265;BME280;42646;51.910;7.724;2023-03-23T07:17:16;99660.91;;;12.76;94.48
39265;BME280;42646;51.910;7.724;2023-03-23T07:19:59;99658.72;;;12.80;94.53
39265;BME280;42646;51.910;7.724;2023-03-23T07:22:28;99673.56;;;12.82;93.79
39265;BME280;42646;51.910;7.724;2023-03-23T07:25:04;99675.44;;;12.97;93.29
39265;BME280;42646;51.910;7.724;2023-03-23T07:27:44;99671.84;;;12.90;92.51
39265;BME280;42646;51.910;7.724;2023-03-23T07:30:13;99667.09;;;13.00;92.02
39265;BME280;42646;51.910;7.724;2023-03-23T07:32:40;99677.16;;;12.90;92.52
39265;BME280;42646;51.910;7.724;2023-03-23T07:35:08;99681.16;;;12.94;92.90
39265;BME280;42646;51.910;7.724;2023-03-23T07:37:58;99683.28;;;12.98;92.29
39265;BME280;42646;51.910;7.724;2023-03-23T07:40:27;99692.28;;;12.97;93.19
39265;BME280;42646;51.910;7.724;2023-03-23T07:43:03;99697.69;;;12.89;95.29
39265;BME280;42646;51.910;7.724;2023-03-23T07:45:47;99690.75;;;12.80;97.24
39265;BME280;42646;51.910;7.724;2023-03-23T07:48:15;99698.81;;;12.72;98.96
39265;BME280;42646;51.910;7.724;2023-03-23T07:50:42;99697.47;;;12.68;99.82
39265;BME280;42646;51.910;7.724;2023-03-23T07:53:11;99700.97;;;12.68;100.00
39265;BME280;42646;51.910;7.724;2023-03-23T07:55:41;99694.47;;;12.71;99.02
39265;BME280;42646;51.910;7.724;2023-03-23T07:58:24;99684.53;;;12.56;98.81
39265;BME280;42646;51.910;7.724;2023-03-23T08:00:54;99702.38;;;12.56;98.91
39265;BME280;42646;51.910;7.724;2023-03-23T08:03:27;99692.69;;;12.63;96.40
39265;BME280;42646;51.910;7.724;2023-03-23T08:06:25;99694.22;;;12.57;96.71
39265;BME280;42646;51.910;7.724;2023-03-23T08:09:09;99697.34;;;12.61;95.81
39265;BME280;42646;51.910;7.724;2023-03-23T08:12:05;99698.03;;;12.63;95.48
39265;BME280;42646;51.910;7.724;2023-03-23T08:15:07;99710.69;;;12.69;95.03
39265;BME280;42646;51.910;7.724;2023-03-23T08:17:48;99704.78;;;12.74;94.39
39265;BME280;42646;51.910;7.724;2023-03-23T08:20:34;99709.78;;;12.77;93.63
39265;BME280;42646;51.910;7.724;2023-03-23T08:23:24;99697.69;;;12.89;92.68
39265;BME280;42646;51.910;7.724;2023-03-23T08:26:11;99701.72;;;12.85;92.71
39265;BME280;42646;51.910;7.724;2023-03-23T08:29:01;99692.84;;;12.93;91.41
39265;BME280;42646;51.910;7.724;2023-03-23T08:31:48;99701.13;;;12.98;91.94
39265;BME280;42646;51.910;7.724;2023-03-23T08:34:30;99705.50;;;12.99;92.04
39265;BME280;42646;51.910;7.724;2023-03-23T08:37:27;99703.66;;;12.99;91.81
39265;BME280;42646;51.910;7.724;2023-03-23T08:40:27;99709.28;;;13.04;91.37
39265;BME280;42646;51.910;7.724;2023-03-23T08:43:12;99710.88;;;13.14;90.89
39265;BME280;42646;51.910;7.724;2023-03-23T08:45:59;99721.66;;;13.28;89.03
39265;BME280;42646;51.910;7.724;2023-03-23T08:48:58;99715.88;;;13.17;90.06
39265;BME280;42646;51.910;7.724;2023-03-23T08:51:47;99711.56;;;13.39;89.18
39265;BME280;42646;51.910;7.724;2023-03-23T08:54:34;99716.97;;;13.30;88.42
39265;BME280;42646;51.910;7.724;2023-03-23T08:57:25;99724.59;;;13.33;89.20
39265;BME280;42646;51.910;7.724;2023-03-23T09:00:15;99734.88;;;13.45;88.52
39265;BME280;42646;51.910;7.724;2023-03-23T09:03:09;99732.88;;;13.47;88.55
39265;BME280;42646;51.910;7.724;2023-03-23T09:05:59;99728.66;;;13.52;87.17
39265;BME280;42646;51.910;7.724;2023-03-23T09:08:35;99732.44;;;13.58;86.70
39265;BME280;42646;51.910;7.724;2023-03-23T09:11:03;99726.44;;;13.56;86.51
39265;BME280;42646;51.910;7.724;2023-03-23T09:13:32;99738.97;;;13.55;86.13
39265;BME280;42646;51.910;7.724;2023-03-23T09:15:59;99734.94;;;13.59;87.39
39265;BME280;42646;51.910;7.724;2023-03-23T09:18:26;99749.53;;;13.49;88.06
39265;BME280;42646;51.910;7.724;2023-03-23T09:20:54;99749.34;;;13.50;87.84
39265;BME280;42646;51.910;7.724;2023-03-23T09:23:22;99738.63;;;13.35;89.37
39265;BME280;42646;51.910;7.724;2023-03-23T09:25:49;99742.13;;;13.36;89.79
39265;BME280;42646;51.910;7.724;2023-03-23T09:28:16;99749.56;;;13.26;90.62
39265;BME280;42646;51.910;7.724;2023-03-23T09:30:43;99745.56;;;13.22;90.10
39265;BME280;42646;51.910;7.724;2023-03-23T09:33:11;99746.25;;;13.16;90.21
39265;BME280;42646;51.910;7.724;2023-03-23T09:35:38;99755.78;;;13.10;90.68
39265;BME280;42646;51.910;7.724;2023-03-23T09:38:07;99753.50;;;13.07;91.16
39265;BME280;42646;51.910;7.724;2023-03-23T09:40:44;99755.03;;;13.01;91.82
39265;BME280;42646;51.910;7.724;2023-03-23T09:43:22;99760.53;;;13.00;91.28
39265;BME280;42646;51.910;7.724;2023-03-23T09:45:59;99756.50;;;13.04;89.71
39265;BME280;42646;51.910;7.724;2023-03-23T09:48:36;99756.97;;;13.07;90.41
39265;BME280;42646;51.910;7.724;2023-03-23T09:51:13;99759.78;;;13.14;90.13
39265;BME280;42646;51.910;7.724;2023-03-23T09:53:46;99772.94;;;13.16;89.90
39265;BME280;42646;51.910;7.724;2023-03-23T09:56:16;99801.81;;;13.20;90.12
39265;BME280;42646;51.910;7.724;2023-03-23T09:58:46;99843.16;;;13.32;85.89
39265;BME280;42646;51.910;7.724;2023-03-23T10:01:20;99862.91;;;13.15;82.41
39265;BME280;42646;51.910;7.724;2023-03-23T10:04:22;99846.03;;;12.83;84.59
39265;BME280;42646;51.910;7.724;2023-03-23T10:06:50;99844.66;;;12.48;88.55
39265;BME280;42646;51.910;7.724;2023-03-23T10:09:18;99869.72;;;12.23;92.08
39265;BME280;42646;51.910;7.724;2023-03-23T10:11:56;99867.03;;;12.15;92.52
39265;BME280;42646;51.910;7.724;2023-03-23T10:14:34;99874.34;;;11.80;94.94
39265;BME280;42646;51.910;7.724;2023-03-23T10:17:11;99874.81;;;11.59;97.62
39265;BME280;42646;51.910;7.724;2023-03-23T10:19:46;99868.59;;;11.42;99.77
39265;BME280;42646;51.910;7.724;2023-03-23T10:22:18;99858.25;;;11.31;100.00
39265;BME280;42646;51.910;7.724;2023-03-23T10:24:50;99848.09;;;11.18;100.00
39265;BME280;42646;51.910;7.724;2023-03-23T10:27:26;99855.56;;;11.15;100.00
39265;BME280;42646;51.910;7.724;2023-03-23T10:29:58;99858.88;;;11.09;100.00
39265;BME280;42646;51.910;7.724;2023-03-23T10:32:47;99854.81;;;10.96;100.00
39265;BME280;42646;51.910;7.724;2023-03-23T10:35:19;99846.53;;;11.00;100.00
39265;BME280;42646;51.910;7.724;2023-03-23T10:37:49;99848.31;;;10.91;100.00
39265;BME280;42646;51.910;7.724;2023-03-23T10:40:19;99848.66;;;10.88;100.00
39265;BME280;42646;51.910;7.724;2023-03-23T10:42:51;99846.16;;;10.86;100.00
39265;BME280;42646;51.910;7.724;2023-03-23T10:45:44;99849.81;;;10.85;100.00
39265;BME280;42646;51.910;7.724;2023-03-23T10:48:15;99850.47;;;10.87;100.00
39265;BME280;42646;51.910;7.724;2023-03-23T10:50:50;99858.28;;;10.89;100.00
39265;BME280;42646;51.910;7.724;2023-03-23T10:53:22;99862.97;;;10.95;100.00
39265;BME280;42646;51.910;7.724;2023-03-23T10:55:49;99866.81;;;11.01;100.00
39265;BME280;42646;51.910;7.724;2023-03-23T10:58:25;99864.22;;;11.17;100.00
39265;BME280;42646;51.910;7.724;2023-03-23T11:00:54;99866.22;;;11.15;100.00
39265;BME280;42646;51.910;7.724;2023-03-23T11:03:35;99853.56;;;11.17;100.00
39265;BME280;42646;51.910;7.724;2023-03-23T11:06:06;99863.06;;;11.19;100.00
39265;BME280;42646;51.910;7.724;2023-03-23T11:08:35;99877.72;;;11.23;100.00
39265;BME280;42646;51.910;7.724;2023-03-23T11:11:11;99896.53;;;11.22;100.00
39265;BME280;42646;51.910;7.724;2023-03-23T11:13:44;99884.88;;;11.23;100.00
39265;BME280;42646;51.910;7.724;2023-03-23T11:16:22;99889.38;;;11.22;100.00
39265;BME280;42646;51.910;7.724;2023-03-23T11:18:50;99889.69;;;11.19;100.00
39265;BME280;42646;51.910;7.724;2023-03-23T11:21:19;99885.41;;;11.27;100.00
39265;BME280;42646;51.910;7.724;2023-03-23T11:23:50;99894.34;;;11.26;100.00
39265;BME280;42646;51.910;7.724;2023-03-23T11:26:20;99888.38;;;11.32;100.00
39265;BME280;42646;51.910;7.724;2023-03-23T11:28:53;99890.56;;;11.36;100.00
39265;BME280;42646;51.910;7.724;2023-03-23T11:31:22;99892.22;;;11.37;100.00
39265;BME280;42646;51.910;7.724;2023-03-23T11:33:57;99888.09;;;11.43;100.00
39265;BME280;42646;51.910;7.724;2023-03-23T11:36:31;99893.94;;;11.46;100.00
39265;BME280;42646;51.910;7.724;2023-03-23T11:38:59;99895.78;;;11.54;100.00
39265;BME280;42646;51.910;7.724;2023-03-23T11:41:33;99881.97;;;11.50;100.00
39265;BME280;42646;51.910;7.724;2023-03-23T11:44:09;99872.31;;;11.66;100.00
39265;BME280;42646;51.910;7.724;2023-03-23T11:46:43;99884.47;;;11.60;100.00
39265;BME280;42646;51.910;7.724;2023-03-23T11:49:20;99882.31;;;11.64;100.00
39265;BME280;42646;51.910;7.724;2023-03-23T11:51:54;99879.31;;;11.67;100.00
39265;BME280;42646;51.910;7.724;2023-03-23T11:54:28;99879.81;;;11.70;100.00
39265;BME280;42646;51.910;7.724;2023-03-23T11:56:56;99875.63;;;11.68;100.00
39265;BME280;42646;51.910;7.724;2023-03-23T11:59:29;99871.84;;;11.62;100.00
39265;BME280;42646;51.910;7.724;2023-03-23T12:02:07;99876.66;;;11.67;100.00
39265;BME280;42646;51.910;7.724;2023-03-23T12:04:51;99874.81;;;11.67;100.00
39265;BME280;42646;51.910;7.724;2023-03-23T12:07:35;99864.66;;;11.63;100.00
39265;BME280;42646;51.910;7.724;2023-03-23T12:10:14;99862.31;;;11.60;100.00
39265;BME280;42646;51.910;7.724;2023-03-23T12:12:49;99866.16;;;11.57;100.00
39265;BME280;42646;51.910;7.724;2023-03-23T12:15:22;99870.31;;;11.60;100.00
39265;BME280;42646;51.910;7.724;2023-03-23T12:18:00;99882.84;;;11.75;100.00
39265;BME280;42646;51.910;7.724;2023-03-23T12:20:38;99873.84;;;11.68;100.00
39265;BME280;42646;51.910;7.724;2023-03-23T12:23:19;99872.50;;;11.72;100.00
39265;BME280;42646;51.910;7.724;2023-03-23T12:26:08;99875.88;;;11.83;100.00
39265;BME280;42646;51.910;7.724;2023-03-23T12:29:15;99866.38;;;11.88;100.00
39265;BME280;42646;51.910;7.724;2023-03-23T12:31:56;99876.53;;;12.01;100.00
39265;BME280;42646;51.910;7.724;2023-03-23T12:34:35;99870.22;;;12.18;100.00
39265;BME280;42646;51.910;7.724;2023-03-23T12:37:17;99879.69;;;12.21;100.00
39265;BME280;42646;51.910;7.724;2023-03-23T12:40:06;99867.19;;;12.29;100.00
39265;BME280;42646;51.910;7.724;2023-03-23T12:42:40;99877.69;;;12.39;100.00
39265;BME280;42646;51.910;7.724;2023-03-23T12:45:18;99874.19;;;12.47;100.00
39265;BME280;42646;51.910;7.724;2023-03-23T12:47:51;99865.47;;;12.61;100.00
39265;BME280;42646;51.910;7.724;2023-03-23T12:50:28;99869.13;;;12.60;100.00
39265;BME280;42646;51.910;7.724;2023-03-23T12:52:59;99864.94;;;12.66;100.00
39265;BME280;42646;51.910;7.724;2023-03-23T12:55:34;99862.59;;;12.71;100.00
39265;BME280;42646;51.910;7.724;2023-03-23T12:58:02;99859.94;;;12.71;100.00
39265;BME280;42646;51.910;7.724;2023-03-23T13:00:46;99876.63;;;12.65;100.00
39265;BME280;42646;51.910;7.724;2023-03-23T13:03:20;99883.47;;;12.67;100.00
39265;BME280;42646;51.910;7.724;2023-03-23T13:05:54;99893.13;;;12.76;100.00
39265;BME280;42646;51.910;7.724;2023-03-23T13:08:25;99891.47;;;12.75;100.00
39265;BME280;42646;51.910;7.724;2023-03-23T13:10:56;99897.81;;;12.66;100.00
39265;BME280;42646;51.910;7.724;2023-03-23T13:13:39;99890.63;;;12.67;100.00
39265;BME280;42646;51.910;7.724;2023-03-23T13:16:11;99883.47;;;12.67;100.00
39265;BME280;42646;51.910;7.724;2023-03-23T13:19:10;99880.78;;;12.67;100.00
39265;BME280;42646;51.910;7.724;2023-03-23T13:21:43;99889.81;;;12.66;100.00
39265;BME280;42646;51.910;7.724;2023-03-23T13:24:14;99900.97;;;12.62;100.00
39265;BME280;42646;51.910;7.724;2023-03-23T13:26:43;99877.97;;;12.61;100.00
39265;BME280;42646;51.910;7.724;2023-03-23T13:29:13;99869.09;;;12.68;100.00
39265;BME280;42646;51.910;7.724;2023-03-23T13:31:41;99866.44;;;12.76;100.00
39265;BME280;42646;51.910;7.724;2023-03-23T13:34:16;99859.75;;;12.72;100.00
39265;BME280;42646;51.910;7.724;2023-03-23T13:36:52;99834.09;;;12.71;100.00
39265;BME280;42646;51.910;7.724;2023-03-23T13:39:21;99820.00;;;12.86;100.00
39265;BME280;42646;51.910;7.724;2023-03-23T13:42:01;99822.47;;;12.95;100.00
39265;BME280;42646;51.910;7.724;2023-03-23T13:44:42;99832.84;;;12.90;100.00
39265;BME280;42646;51.910;7.724;2023-03-23T13:47:21;99829.50;;;12.88;100.00
39265;BME280;42646;51.910;7.724;2023-03-23T13:49:51;99834.63;;;12.98;100.00
39265;BME280;42646;51.910;7.724;2023-03-23T13:52:51;99838.41;;;13.12;100.00
39265;BME280;42646;51.910;7.724;2023-03-23T13:55:22;99840.22;;;13.19;100.00
39265;BME280;42646;51.910;7.724;2023-03-23T13:57:55;99839.38;;;13.19;100.00
39265;BME280;42646;51.910;7.724;2023-03-23T14:00:35;99850.41;;;13.24;100.00
39265;BME280;42646;51.910;7.724;2023-03-23T14:03:12;99837.69;;;13.26;100.00
39265;BME280;42646;51.910;7.724;2023-03-23T14:05:41;99840.97;;;13.36;100.00
39265;BME280;42646;51.910;7.724;2023-03-23T14:08:14;99844.91;;;13.48;100.00
39265;BME280;42646;51.910;7.724;2023-03-23T14:10:53;99841.03;;;13.51;100.00
39265;BME280;42646;51.910;7.724;2023-03-23T14:13:25;99840.00;;;13.60;100.00
39265;BME280;42646;51.910;7.724;2023-03-23T14:15:59;99858.47;;;13.70;97.83